CYHZ

Halifax / Stanfield International Airport

Halifax, Nova Scotia, Canada
TAF CYHZ 241742Z 2418/2518 36012KT P6SM FEW040 BECMG 2500/2502 36006KT FM250600 VRB03KT P6SM SKC BECMG 2513/2515 16010KT RMK NXT FCST BY 242100Z
Issued Valid From Valid To
Sep-24 @ 17:42 UTC
(2 hours ago)
Sep-24 @ 18:00 UTC
(an hour ago)
Sep-25 @ 18:00 UTC
(in 23 hours)
Sep-24 @ 18:00 to Sep-25 @ 00:00
TAF CYHZ 241742Z 2418/2518 36012KT P6SM FEW040
Wind Visibility Clouds
360° at 12 knots Greater than 6 miles
  • Few at 4,000' AGL
Becoming Sep-25 @ 00:00 to Sep-25 @ 06:00
BECMG 2500/2502 36006KT
Wind Visibility Clouds
360° at 6 knots Greater than 6 miles
  • Few at 4,000' AGL
From Sep-25 @ 06:00 to Sep-25 @ 13:00
FM250600 VRB03KT P6SM SKC
Wind Visibility Clouds
Variable at 3 knots Greater than 6 miles
  • Clear skies
Becoming Sep-25 @ 13:00 to Sep-25 @ 18:00
BECMG 2513/2515 16010KT RMK NXT FCST BY 242100Z
Wind Visibility Clouds
160° at 10 knots Greater than 6 miles
  • Clear skies
TAF CYHZ 241742Z 2418/2518 36012KT P6SM FEW040 BECMG 2500/2502 36006KT FM250600 VRB03KT P6SM SKC BECMG 2513/2515 16010KT RMK NXT FCST BY 242100Z
Issued Sep-24 @ 17:42 UTC
(2 hours ago)
Valid From Sep-24 @ 18:00 UTC
(an hour ago)
Valid To Sep-25 @ 18:00 UTC
(in 23 hours)
Sep-24 @ 18:00 - Sep-25 @ 00:00
Wind Visibility
360° at 12 knots Greater than 6 miles
Clouds
  • Few at 4,000' AGL
Becoming Sep-25 @ 00:00 - Sep-25 @ 06:00
Wind Visibility
360° at 6 knots Greater than 6 miles
Clouds
  • Few at 4,000' AGL
From Sep-25 @ 06:00 - Sep-25 @ 13:00
Wind Visibility
Variable at 3 knots Greater than 6 miles
Clouds
  • Clear skies
Becoming Sep-25 @ 13:00 - Sep-25 @ 18:00
Wind Visibility
160° at 10 knots Greater than 6 miles
Clouds
  • Clear skies